sensor_id;sensor_type;location;lat;lon;timestamp;P1;durP1;ratioP1;P2;durP2;ratioP2
33108;SDS011;19481;51.118;6.940;2024-03-29T00:01:35;0.50;;;0.50;;
33108;SDS011;19481;51.118;6.940;2024-03-29T00:06:35;0.50;;;0.50;;
33108;SDS011;19481;51.118;6.940;2024-03-29T00:11:36;0.50;;;0.50;;
33108;SDS011;19481;51.118;6.940;2024-03-29T00:16:38;1.58;;;0.60;;
33108;SDS011;19481;51.118;6.940;2024-03-29T00:21:39;0.70;;;0.70;;
33108;SDS011;19481;51.118;6.940;2024-03-29T00:26:39;0.60;;;0.60;;
33108;SDS011;19481;51.118;6.940;2024-03-29T00:31:41;1.27;;;0.60;;
33108;SDS011;19481;51.118;6.940;2024-03-29T00:36:42;0.52;;;0.52;;
33108;SDS011;19481;51.118;6.940;2024-03-29T00:41:43;0.50;;;0.50;;
33108;SDS011;19481;51.118;6.940;2024-03-29T00:46:45;0.60;;;0.60;;
33108;SDS011;19481;51.118;6.940;2024-03-29T00:51:45;0.85;;;0.82;;
33108;SDS011;19481;51.118;6.940;2024-03-29T00:56:46;0.50;;;0.50;;
33108;SDS011;19481;51.118;6.940;2024-03-29T01:01:48;0.50;;;0.50;;
33108;SDS011;19481;51.118;6.940;2024-03-29T01:06:49;1.38;;;0.77;;
33108;SDS011;19481;51.118;6.940;2024-03-29T01:11:50;0.50;;;0.50;;
33108;SDS011;19481;51.118;6.940;2024-03-29T01:16:52;0.50;;;0.50;;
33108;SDS011;19481;51.118;6.940;2024-03-29T01:21:53;0.63;;;0.63;;
33108;SDS011;19481;51.118;6.940;2024-03-29T01:26:56;0.60;;;0.60;;
33108;SDS011;19481;51.118;6.940;2024-03-29T01:32:09;0.60;;;0.60;;
33108;SDS011;19481;51.118;6.940;2024-03-29T01:37:09;0.50;;;0.50;;
33108;SDS011;19481;51.118;6.940;2024-03-29T01:42:10;0.60;;;0.60;;
33108;SDS011;19481;51.118;6.940;2024-03-29T01:47:12;0.80;;;0.60;;
33108;SDS011;19481;51.118;6.940;2024-03-29T01:52:14;0.65;;;0.65;;
33108;SDS011;19481;51.118;6.940;2024-03-29T01:57:17;0.40;;;0.40;;
33108;SDS011;19481;51.118;6.940;2024-03-29T02:02:20;0.40;;;0.40;;
33108;SDS011;19481;51.118;6.940;2024-03-29T02:07:23;0.45;;;0.40;;
33108;SDS011;19481;51.118;6.940;2024-03-29T02:12:25;1.20;;;0.50;;
33108;SDS011;19481;51.118;6.940;2024-03-29T02:17:28;0.40;;;0.40;;
33108;SDS011;19481;51.118;6.940;2024-03-29T02:22:29;0.85;;;0.50;;
33108;SDS011;19481;51.118;6.940;2024-03-29T02:27:34;0.57;;;0.57;;
33108;SDS011;19481;51.118;6.940;2024-03-29T02:32:36;0.52;;;0.52;;
33108;SDS011;19481;51.118;6.940;2024-03-29T02:37:38;0.40;;;0.40;;
33108;SDS011;19481;51.118;6.940;2024-03-29T02:42:41;0.40;;;0.40;;
33108;SDS011;19481;51.118;6.940;2024-03-29T02:47:42;0.40;;;0.40;;
33108;SDS011;19481;51.118;6.940;2024-03-29T02:52:44;1.85;;;0.65;;
33108;SDS011;19481;51.118;6.940;2024-03-29T02:57:47;0.60;;;0.60;;
33108;SDS011;19481;51.118;6.940;2024-03-29T03:02:49;0.60;;;0.60;;
33108;SDS011;19481;51.118;6.940;2024-03-29T03:07:50;0.50;;;0.50;;
33108;SDS011;19481;51.118;6.940;2024-03-29T03:13:11;0.50;;;0.50;;
33108;SDS011;19481;51.118;6.940;2024-03-29T03:18:12;0.60;;;0.60;;
33108;SDS011;19481;51.118;6.940;2024-03-29T03:23:14;0.50;;;0.50;;
33108;SDS011;19481;51.118;6.940;2024-03-29T03:28:17;0.60;;;0.60;;
33108;SDS011;19481;51.118;6.940;2024-03-29T03:33:18;0.50;;;0.50;;
33108;SDS011;19481;51.118;6.940;2024-03-29T03:38:20;0.60;;;0.60;;
33108;SDS011;19481;51.118;6.940;2024-03-29T03:43:23;0.50;;;0.50;;
33108;SDS011;19481;51.118;6.940;2024-03-29T03:48:25;0.60;;;0.60;;
33108;SDS011;19481;51.118;6.940;2024-03-29T03:53:28;0.47;;;0.47;;
33108;SDS011;19481;51.118;6.940;2024-03-29T03:58:31;0.50;;;0.50;;
33108;SDS011;19481;51.118;6.940;2024-03-29T04:03:33;0.85;;;0.85;;
33108;SDS011;19481;51.118;6.940;2024-03-29T04:08:34;0.75;;;0.60;;
33108;SDS011;19481;51.118;6.940;2024-03-29T04:13:37;0.70;;;0.70;;
33108;SDS011;19481;51.118;6.940;2024-03-29T04:18:40;0.50;;;0.50;;
33108;SDS011;19481;51.118;6.940;2024-03-29T04:23:42;0.60;;;0.60;;
33108;SDS011;19481;51.118;6.940;2024-03-29T04:28:45;0.50;;;0.50;;
33108;SDS011;19481;51.118;6.940;2024-03-29T04:33:46;0.60;;;0.60;;
33108;SDS011;19481;51.118;6.940;2024-03-29T04:38:48;1.17;;;0.80;;
33108;SDS011;19481;51.118;6.940;2024-03-29T04:43:51;0.60;;;0.60;;
33108;SDS011;19481;51.118;6.940;2024-03-29T04:48:53;0.68;;;0.57;;
33108;SDS011;19481;51.118;6.940;2024-03-29T04:53:54;1.05;;;0.90;;
33108;SDS011;19481;51.118;6.940;2024-03-29T04:58:57;0.50;;;0.50;;
33108;SDS011;19481;51.118;6.940;2024-03-29T05:03:59;2.20;;;0.50;;
33108;SDS011;19481;51.118;6.940;2024-03-29T05:09:01;0.60;;;0.60;;
33108;SDS011;19481;51.118;6.940;2024-03-29T05:14:04;0.60;;;0.60;;
33108;SDS011;19481;51.118;6.940;2024-03-29T05:19:05;0.60;;;0.60;;
33108;SDS011;19481;51.118;6.940;2024-03-29T05:24:07;0.80;;;0.80;;
33108;SDS011;19481;51.118;6.940;2024-03-29T05:29:11;0.50;;;0.50;;
33108;SDS011;19481;51.118;6.940;2024-03-29T05:34:12;1.75;;;0.60;;
33108;SDS011;19481;51.118;6.940;2024-03-29T05:39:14;0.75;;;0.75;;
33108;SDS011;19481;51.118;6.940;2024-03-29T05:44:17;0.70;;;0.70;;
33108;SDS011;19481;51.118;6.940;2024-03-29T05:49:19;1.48;;;0.60;;
33108;SDS011;19481;51.118;6.940;2024-03-29T05:54:20;0.55;;;0.55;;
33108;SDS011;19481;51.118;6.940;2024-03-29T05:59:24;0.63;;;0.63;;
33108;SDS011;19481;51.118;6.940;2024-03-29T06:04:25;0.60;;;0.60;;
33108;SDS011;19481;51.118;6.940;2024-03-29T06:09:32;0.50;;;0.50;;
33108;SDS011;19481;51.118;6.940;2024-03-29T06:14:35;0.55;;;0.55;;
33108;SDS011;19481;51.118;6.940;2024-03-29T06:19:55;0.60;;;0.60;;
33108;SDS011;19481;51.118;6.940;2024-03-29T06:24:58;0.60;;;0.60;;
33108;SDS011;19481;51.118;6.940;2024-03-29T06:30:06;0.63;;;0.60;;
33108;SDS011;19481;51.118;6.940;2024-03-29T06:35:09;0.57;;;0.57;;
33108;SDS011;19481;51.118;6.940;2024-03-29T06:40:11;0.50;;;0.50;;
33108;SDS011;19481;51.118;6.940;2024-03-29T06:45:14;0.50;;;0.50;;
33108;SDS011;19481;51.118;6.940;2024-03-29T06:50:15;0.63;;;0.63;;
33108;SDS011;19481;51.118;6.940;2024-03-29T06:55:17;0.65;;;0.43;;
33108;SDS011;19481;51.118;6.940;2024-03-29T07:00:21;0.55;;;0.55;;
33108;SDS011;19481;51.118;6.940;2024-03-29T07:05:22;0.60;;;0.60;;
33108;SDS011;19481;51.118;6.940;2024-03-29T07:10:24;0.63;;;0.63;;
33108;SDS011;19481;51.118;6.940;2024-03-29T07:15:27;0.55;;;0.55;;
33108;SDS011;19481;51.118;6.940;2024-03-29T07:20:29;0.60;;;0.60;;
33108;SDS011;19481;51.118;6.940;2024-03-29T07:25:30;1.45;;;0.85;;
33108;SDS011;19481;51.118;6.940;2024-03-29T07:30:34;0.70;;;0.70;;
33108;SDS011;19481;51.118;6.940;2024-03-29T07:35:37;0.70;;;0.70;;
33108;SDS011;19481;51.118;6.940;2024-03-29T07:40:41;0.60;;;0.60;;
33108;SDS011;19481;51.118;6.940;2024-03-29T07:45:44;0.68;;;0.68;;
33108;SDS011;19481;51.118;6.940;2024-03-29T07:50:46;3.67;;;0.80;;
33108;SDS011;19481;51.118;6.940;2024-03-29T07:55:49;2.08;;;1.25;;
33108;SDS011;19481;51.118;6.940;2024-03-29T08:00:52;0.70;;;0.70;;
33108;SDS011;19481;51.118;6.940;2024-03-29T08:05:56;0.60;;;0.60;;
33108;SDS011;19481;51.118;6.940;2024-03-29T08:10:58;0.80;;;0.80;;
33108;SDS011;19481;51.118;6.940;2024-03-29T08:16:01;0.60;;;0.60;;
33108;SDS011;19481;51.118;6.940;2024-03-29T08:21:03;0.65;;;0.65;;
33108;SDS011;19481;51.118;6.940;2024-03-29T08:26:11;0.70;;;0.70;;
33108;SDS011;19481;51.118;6.940;2024-03-29T08:31:14;0.80;;;0.80;;
33108;SDS011;19481;51.118;6.940;2024-03-29T08:36:16;0.60;;;0.60;;
33108;SDS011;19481;51.118;6.940;2024-03-29T08:41:18;0.80;;;0.80;;
33108;SDS011;19481;51.118;6.940;2024-03-29T08:46:21;0.50;;;0.50;;
33108;SDS011;19481;51.118;6.940;2024-03-29T08:51:23;0.50;;;0.50;;
33108;SDS011;19481;51.118;6.940;2024-03-29T08:56:25;0.50;;;0.50;;
33108;SDS011;19481;51.118;6.940;2024-03-29T09:01:28;0.55;;;0.55;;
33108;SDS011;19481;51.118;6.940;2024-03-29T09:06:29;0.63;;;0.63;;
33108;SDS011;19481;51.118;6.940;2024-03-29T09:11:31;0.70;;;0.70;;
33108;SDS011;19481;51.118;6.940;2024-03-29T09:16:34;0.65;;;0.65;;
33108;SDS011;19481;51.118;6.940;2024-03-29T09:21:36;0.52;;;0.52;;
33108;SDS011;19481;51.118;6.940;2024-03-29T09:26:37;0.50;;;0.50;;
33108;SDS011;19481;51.118;6.940;2024-03-29T09:31:41;0.50;;;0.50;;
33108;SDS011;19481;51.118;6.940;2024-03-29T09:36:43;0.55;;;0.55;;
33108;SDS011;19481;51.118;6.940;2024-03-29T09:41:45;0.60;;;0.60;;
33108;SDS011;19481;51.118;6.940;2024-03-29T09:46:48;0.50;;;0.50;;
33108;SDS011;19481;51.118;6.940;2024-03-29T09:51:51;0.40;;;0.40;;
33108;SDS011;19481;51.118;6.940;2024-03-29T09:56:54;0.60;;;0.60;;
33108;SDS011;19481;51.118;6.940;2024-03-29T10:01:57;0.65;;;0.65;;
33108;SDS011;19481;51.118;6.940;2024-03-29T10:07:01;0.50;;;0.50;;
33108;SDS011;19481;51.118;6.940;2024-03-29T10:12:02;0.50;;;0.50;;
33108;SDS011;19481;51.118;6.940;2024-03-29T10:17:06;1.23;;;0.60;;
33108;SDS011;19481;51.118;6.940;2024-03-29T10:22:08;2.58;;;0.50;;
33108;SDS011;19481;51.118;6.940;2024-03-29T10:27:09;0.47;;;0.47;;
33108;SDS011;19481;51.118;6.940;2024-03-29T10:32:12;0.50;;;0.50;;
33108;SDS011;19481;51.118;6.940;2024-03-29T10:37:14;0.43;;;0.43;;
33108;SDS011;19481;51.118;6.940;2024-03-29T10:42:16;0.60;;;0.50;;
33108;SDS011;19481;51.118;6.940;2024-03-29T10:47:20;0.50;;;0.50;;
33108;SDS011;19481;51.118;6.940;2024-03-29T10:52:24;1.40;;;0.70;;
33108;SDS011;19481;51.118;6.940;2024-03-29T10:57:26;0.50;;;0.50;;
33108;SDS011;19481;51.118;6.940;2024-03-29T11:02:41;0.47;;;0.47;;
33108;SDS011;19481;51.118;6.940;2024-03-29T11:07:48;0.38;;;0.38;;
33108;SDS011;19481;51.118;6.940;2024-03-29T11:12:54;0.40;;;0.40;;
33108;SDS011;19481;51.118;6.940;2024-03-29T11:18:01;0.73;;;0.40;;
33108;SDS011;19481;51.118;6.940;2024-03-29T11:23:05;0.40;;;0.40;;
33108;SDS011;19481;51.118;6.940;2024-03-29T11:28:11;0.40;;;0.40;;
33108;SDS011;19481;51.118;6.940;2024-03-29T11:33:29;0.65;;;0.40;;
33108;SDS011;19481;51.118;6.940;2024-03-29T11:38:32;0.40;;;0.40;;
33108;SDS011;19481;51.118;6.940;2024-03-29T11:43:35;0.40;;;0.40;;
33108;SDS011;19481;51.118;6.940;2024-03-29T11:48:39;0.40;;;0.40;;
33108;SDS011;19481;51.118;6.940;2024-03-29T11:53:41;0.30;;;0.30;;
33108;SDS011;19481;51.118;6.940;2024-03-29T11:58:43;0.30;;;0.30;;
33108;SDS011;19481;51.118;6.940;2024-03-29T12:03:47;0.40;;;0.40;;
33108;SDS011;19481;51.118;6.940;2024-03-29T12:08:49;0.40;;;0.40;;
33108;SDS011;19481;51.118;6.940;2024-03-29T12:13:53;0.30;;;0.30;;
33108;SDS011;19481;51.118;6.940;2024-03-29T12:18:56;0.40;;;0.40;;
33108;SDS011;19481;51.118;6.940;2024-03-29T12:23:57;0.50;;;0.50;;
33108;SDS011;19481;51.118;6.940;2024-03-29T12:28:59;0.30;;;0.30;;
33108;SDS011;19481;51.118;6.940;2024-03-29T12:34:02;0.40;;;0.40;;
33108;SDS011;19481;51.118;6.940;2024-03-29T12:39:04;1.55;;;0.40;;
33108;SDS011;19481;51.118;6.940;2024-03-29T12:44:06;0.40;;;0.40;;
33108;SDS011;19481;51.118;6.940;2024-03-29T12:49:11;0.50;;;0.50;;
33108;SDS011;19481;51.118;6.940;2024-03-29T12:54:13;0.30;;;0.30;;
33108;SDS011;19481;51.118;6.940;2024-03-29T12:59:14;0.30;;;0.30;;
33108;SDS011;19481;51.118;6.940;2024-03-29T13:04:17;0.38;;;0.38;;
33108;SDS011;19481;51.118;6.940;2024-03-29T13:09:19;0.40;;;0.40;;
33108;SDS011;19481;51.118;6.940;2024-03-29T13:14:20;0.40;;;0.40;;
33108;SDS011;19481;51.118;6.940;2024-03-29T13:19:23;0.40;;;0.40;;
33108;SDS011;19481;51.118;6.940;2024-03-29T13:24:25;0.40;;;0.40;;
33108;SDS011;19481;51.118;6.940;2024-03-29T13:29:26;0.40;;;0.40;;
33108;SDS011;19481;51.118;6.940;2024-03-29T13:34:29;0.40;;;0.40;;
33108;SDS011;19481;51.118;6.940;2024-03-29T13:39:31;0.40;;;0.40;;
33108;SDS011;19481;51.118;6.940;2024-03-29T13:44:33;0.30;;;0.30;;
33108;SDS011;19481;51.118;6.940;2024-03-29T13:49:36;0.40;;;0.40;;
33108;SDS011;19481;51.118;6.940;2024-03-29T13:54:37;0.30;;;0.30;;
33108;SDS011;19481;51.118;6.940;2024-03-29T13:59:39;0.30;;;0.30;;
33108;SDS011;19481;51.118;6.940;2024-03-29T14:04:44;0.40;;;0.40;;
33108;SDS011;19481;51.118;6.940;2024-03-29T14:09:47;0.40;;;0.40;;
33108;SDS011;19481;51.118;6.940;2024-03-29T14:14:48;0.30;;;0.30;;
33108;SDS011;19481;51.118;6.940;2024-03-29T14:19:54;0.40;;;0.40;;
33108;SDS011;19481;51.118;6.940;2024-03-29T14:24:55;0.30;;;0.30;;
33108;SDS011;19481;51.118;6.940;2024-03-29T14:29:57;0.40;;;0.40;;
33108;SDS011;19481;51.118;6.940;2024-03-29T14:35:00;0.30;;;0.30;;
33108;SDS011;19481;51.118;6.940;2024-03-29T14:40:02;0.30;;;0.30;;
33108;SDS011;19481;51.118;6.940;2024-03-29T14:45:05;0.40;;;0.40;;
33108;SDS011;19481;51.118;6.940;2024-03-29T14:50:09;0.30;;;0.30;;
33108;SDS011;19481;51.118;6.940;2024-03-29T14:55:11;0.40;;;0.40;;
33108;SDS011;19481;51.118;6.940;2024-03-29T15:00:13;0.40;;;0.40;;
33108;SDS011;19481;51.118;6.940;2024-03-29T15:05:17;0.30;;;0.30;;
33108;SDS011;19481;51.118;6.940;2024-03-29T15:10:18;0.40;;;0.40;;
33108;SDS011;19481;51.118;6.940;2024-03-29T15:15:21;0.65;;;0.40;;
33108;SDS011;19481;51.118;6.940;2024-03-29T15:20:24;0.47;;;0.47;;
33108;SDS011;19481;51.118;6.940;2024-03-29T15:25:26;0.40;;;0.40;;
33108;SDS011;19481;51.118;6.940;2024-03-29T15:30:27;0.40;;;0.40;;
33108;SDS011;19481;51.118;6.940;2024-03-29T15:35:30;0.40;;;0.40;;
33108;SDS011;19481;51.118;6.940;2024-03-29T15:40:32;0.50;;;0.50;;
33108;SDS011;19481;51.118;6.940;2024-03-29T15:45:34;0.32;;;0.32;;
33108;SDS011;19481;51.118;6.940;2024-03-29T15:50:37;0.30;;;0.30;;
33108;SDS011;19481;51.118;6.940;2024-03-29T15:55:38;0.40;;;0.40;;
33108;SDS011;19481;51.118;6.940;2024-03-29T16:00:40;0.40;;;0.40;;
33108;SDS011;19481;51.118;6.940;2024-03-29T16:05:45;0.40;;;0.40;;
33108;SDS011;19481;51.118;6.940;2024-03-29T16:10:51;0.40;;;0.40;;
33108;SDS011;19481;51.118;6.940;2024-03-29T16:15:54;0.40;;;0.40;;
33108;SDS011;19481;51.118;6.940;2024-03-29T16:20:58;0.40;;;0.40;;
33108;SDS011;19481;51.118;6.940;2024-03-29T16:26:00;0.40;;;0.40;;
33108;SDS011;19481;51.118;6.940;2024-03-29T16:31:02;0.40;;;0.40;;
33108;SDS011;19481;51.118;6.940;2024-03-29T16:36:05;0.45;;;0.45;;
33108;SDS011;19481;51.118;6.940;2024-03-29T16:41:09;0.30;;;0.30;;
33108;SDS011;19481;51.118;6.940;2024-03-29T16:46:10;0.35;;;0.35;;
33108;SDS011;19481;51.118;6.940;2024-03-29T16:51:13;0.30;;;0.30;;
33108;SDS011;19481;51.118;6.940;2024-03-29T16:56:15;0.45;;;0.45;;
33108;SDS011;19481;51.118;6.940;2024-03-29T17:01:16;0.50;;;0.50;;
33108;SDS011;19481;51.118;6.940;2024-03-29T17:06:19;0.40;;;0.40;;
33108;SDS011;19481;51.118;6.940;2024-03-29T17:11:21;0.40;;;0.40;;
33108;SDS011;19481;51.118;6.940;2024-03-29T17:16:23;0.40;;;0.40;;
33108;SDS011;19481;51.118;6.940;2024-03-29T17:21:25;0.55;;;0.55;;
33108;SDS011;19481;51.118;6.940;2024-03-29T17:26:27;0.47;;;0.47;;
33108;SDS011;19481;51.118;6.940;2024-03-29T17:31:29;0.60;;;0.60;;
33108;SDS011;19481;51.118;6.940;2024-03-29T17:36:32;0.40;;;0.40;;
33108;SDS011;19481;51.118;6.940;2024-03-29T17:41:33;0.50;;;0.50;;
33108;SDS011;19481;51.118;6.940;2024-03-29T17:46:35;0.60;;;0.60;;
33108;SDS011;19481;51.118;6.940;2024-03-29T17:51:38;0.50;;;0.50;;
33108;SDS011;19481;51.118;6.940;2024-03-29T17:56:40;0.50;;;0.50;;
33108;SDS011;19481;51.118;6.940;2024-03-29T18:01:42;0.55;;;0.55;;
33108;SDS011;19481;51.118;6.940;2024-03-29T18:06:45;0.60;;;0.60;;
33108;SDS011;19481;51.118;6.940;2024-03-29T18:11:47;0.50;;;0.50;;
33108;SDS011;19481;51.118;6.940;2024-03-29T18:16:49;0.40;;;0.40;;
33108;SDS011;19481;51.118;6.940;2024-03-29T18:21:52;0.60;;;0.60;;
33108;SDS011;19481;51.118;6.940;2024-03-29T18:26:54;0.50;;;0.50;;
33108;SDS011;19481;51.118;6.940;2024-03-29T18:31:56;0.50;;;0.50;;
33108;SDS011;19481;51.118;6.940;2024-03-29T18:36:59;1.38;;;0.60;;
33108;SDS011;19481;51.118;6.940;2024-03-29T18:42:03;0.60;;;0.60;;
33108;SDS011;19481;51.118;6.940;2024-03-29T18:47:05;0.60;;;0.60;;
33108;SDS011;19481;51.118;6.940;2024-03-29T18:52:08;0.60;;;0.60;;
33108;SDS011;19481;51.118;6.940;2024-03-29T18:57:10;0.60;;;0.60;;
33108;SDS011;19481;51.118;6.940;2024-03-29T19:02:11;0.57;;;0.57;;
33108;SDS011;19481;51.118;6.940;2024-03-29T19:07:14;0.50;;;0.50;;
33108;SDS011;19481;51.118;6.940;2024-03-29T19:12:16;0.60;;;0.60;;
33108;SDS011;19481;51.118;6.940;2024-03-29T19:17:20;0.50;;;0.50;;
33108;SDS011;19481;51.118;6.940;2024-03-29T19:22:22;0.52;;;0.52;;
33108;SDS011;19481;51.118;6.940;2024-03-29T19:27:24;0.60;;;0.60;;
33108;SDS011;19481;51.118;6.940;2024-03-29T19:32:27;0.50;;;0.50;;
33108;SDS011;19481;51.118;6.940;2024-03-29T19:37:31;0.50;;;0.50;;
33108;SDS011;19481;51.118;6.940;2024-03-29T19:42:33;0.73;;;0.73;;
33108;SDS011;19481;51.118;6.940;2024-03-29T19:47:35;0.55;;;0.55;;
33108;SDS011;19481;51.118;6.940;2024-03-29T19:52:38;0.70;;;0.70;;
33108;SDS011;19481;51.118;6.940;2024-03-29T19:57:39;0.60;;;0.60;;
33108;SDS011;19481;51.118;6.940;2024-03-29T20:02:41;0.90;;;0.90;;
33108;SDS011;19481;51.118;6.940;2024-03-29T20:07:44;1.55;;;0.88;;
33108;SDS011;19481;51.118;6.940;2024-03-29T20:12:46;0.80;;;0.80;;
33108;SDS011;19481;51.118;6.940;2024-03-29T20:17:48;0.80;;;0.80;;
33108;SDS011;19481;51.118;6.940;2024-03-29T20:22:51;0.70;;;0.70;;
33108;SDS011;19481;51.118;6.940;2024-03-29T20:27:52;0.77;;;0.77;;
33108;SDS011;19481;51.118;6.940;2024-03-29T20:32:54;0.50;;;0.50;;
33108;SDS011;19481;51.118;6.940;2024-03-29T20:37:57;0.60;;;0.60;;
33108;SDS011;19481;51.118;6.940;2024-03-29T20:42:59;0.60;;;0.60;;
33108;SDS011;19481;51.118;6.940;2024-03-29T20:48:02;0.60;;;0.60;;
33108;SDS011;19481;51.118;6.940;2024-03-29T20:53:05;0.70;;;0.70;;
33108;SDS011;19481;51.118;6.940;2024-03-29T20:58:08;0.60;;;0.60;;
33108;SDS011;19481;51.118;6.940;2024-03-29T21:03:12;0.60;;;0.60;;
33108;SDS011;19481;51.118;6.940;2024-03-29T21:08:32;0.60;;;0.60;;
33108;SDS011;19481;51.118;6.940;2024-03-29T21:13:34;0.60;;;0.60;;
33108;SDS011;19481;51.118;6.940;2024-03-29T21:18:36;0.70;;;0.70;;
33108;SDS011;19481;51.118;6.940;2024-03-29T21:23:39;0.70;;;0.70;;
33108;SDS011;19481;51.118;6.940;2024-03-29T21:28:42;0.50;;;0.50;;
33108;SDS011;19481;51.118;6.940;2024-03-29T21:33:44;0.60;;;0.60;;
33108;SDS011;19481;51.118;6.940;2024-03-29T21:38:47;0.68;;;0.57;;
33108;SDS011;19481;51.118;6.940;2024-03-29T21:43:48;0.75;;;0.60;;
33108;SDS011;19481;51.118;6.940;2024-03-29T21:48:50;0.52;;;0.52;;
33108;SDS011;19481;51.118;6.940;2024-03-29T21:53:53;0.50;;;0.50;;
33108;SDS011;19481;51.118;6.940;2024-03-29T21:58:54;0.55;;;0.55;;
33108;SDS011;19481;51.118;6.940;2024-03-29T22:03:56;0.70;;;0.70;;
33108;SDS011;19481;51.118;6.940;2024-03-29T22:08:59;0.50;;;0.50;;
33108;SDS011;19481;51.118;6.940;2024-03-29T22:14:01;0.60;;;0.60;;
33108;SDS011;19481;51.118;6.940;2024-03-29T22:19:04;0.60;;;0.60;;
33108;SDS011;19481;51.118;6.940;2024-03-29T22:24:07;0.63;;;0.63;;
33108;SDS011;19481;51.118;6.940;2024-03-29T22:29:09;0.60;;;0.60;;
33108;SDS011;19481;51.118;6.940;2024-03-29T22:34:11;0.60;;;0.60;;
33108;SDS011;19481;51.118;6.940;2024-03-29T22:39:14;0.70;;;0.70;;
33108;SDS011;19481;51.118;6.940;2024-03-29T22:44:15;0.80;;;0.70;;
33108;SDS011;19481;51.118;6.940;2024-03-29T22:49:17;0.70;;;0.70;;
33108;SDS011;19481;51.118;6.940;2024-03-29T22:54:20;0.75;;;0.75;;
33108;SDS011;19481;51.118;6.940;2024-03-29T22:59:22;0.70;;;0.70;;
33108;SDS011;19481;51.118;6.940;2024-03-29T23:04:24;0.70;;;0.70;;
33108;SDS011;19481;51.118;6.940;2024-03-29T23:09:27;0.57;;;0.57;;
33108;SDS011;19481;51.118;6.940;2024-03-29T23:14:28;3.55;;;0.60;;
33108;SDS011;19481;51.118;6.940;2024-03-29T23:19:30;0.95;;;0.95;;
33108;SDS011;19481;51.118;6.940;2024-03-29T23:24:34;0.93;;;0.70;;
33108;SDS011;19481;51.118;6.940;2024-03-29T23:29:35;0.82;;;0.82;;
33108;SDS011;19481;51.118;6.940;2024-03-29T23:34:39;0.60;;;0.60;;
33108;SDS011;19481;51.118;6.940;2024-03-29T23:39:42;0.93;;;0.75;;
33108;SDS011;19481;51.118;6.940;2024-03-29T23:44:44;0.70;;;0.70;;
33108;SDS011;19481;51.118;6.940;2024-03-29T23:49:46;0.73;;;0.73;;
33108;SDS011;19481;51.118;6.940;2024-03-29T23:54:59;0.70;;;0.70;;
